createdAt,value
2022-08-17T00:02:25.961Z,3.80
2022-08-17T00:05:31.439Z,3.38
2022-08-17T00:08:45.222Z,3.03
2022-08-17T00:12:43.053Z,3.38
2022-08-17T00:15:13.427Z,3.88
2022-08-17T00:19:02.099Z,3.07
2022-08-17T00:22:29.444Z,3.42
2022-08-17T00:25:07.505Z,3.60
2022-08-17T00:28:09.984Z,3.33
2022-08-17T00:31:12.165Z,3.47
2022-08-17T00:34:14.135Z,3.50
2022-08-17T00:37:16.261Z,3.65
2022-08-17T00:40:18.875Z,3.78
2022-08-17T00:43:45.467Z,3.63
2022-08-17T00:46:47.978Z,3.80
2022-08-17T00:49:50.037Z,3.80
2022-08-17T00:52:57.685Z,4.10
2022-08-17T00:56:02.294Z,3.70
2022-08-17T00:59:06.700Z,3.92
2022-08-17T01:02:12.533Z,4.10
2022-08-17T01:05:38.335Z,4.00
2022-08-17T01:08:44.791Z,4.18
2022-08-17T01:11:50.228Z,4.18
2022-08-17T01:14:52.209Z,3.90
2022-08-17T01:17:54.242Z,3.75
2022-08-17T01:21:03.172Z,3.47
2022-08-17T01:24:05.432Z,3.97
2022-08-17T01:27:10.315Z,3.58
2022-08-17T01:30:58.275Z,3.35
2022-08-17T01:33:36.234Z,3.75
2022-08-17T01:36:40.492Z,4.00
2022-08-17T01:39:47.593Z,3.60
2022-08-17T01:42:55.928Z,4.10
2022-08-17T01:46:03.522Z,4.00
2022-08-17T01:49:09.767Z,4.47
2022-08-17T01:52:12.698Z,4.07
2022-08-17T01:55:17.058Z,4.18
2022-08-17T01:58:19.815Z,3.90
2022-08-17T02:01:26.630Z,4.10
2022-08-17T02:04:28.673Z,3.85
2022-08-17T02:07:30.651Z,3.50
2022-08-17T02:10:34.381Z,3.78
2022-08-17T02:13:36.570Z,4.10
2022-08-17T02:16:40.300Z,4.28
2022-08-17T02:19:42.345Z,3.35
2022-08-17T02:22:47.273Z,4.07
2022-08-17T02:25:52.673Z,3.85
2022-08-17T02:28:54.942Z,4.13
2022-08-17T02:31:58.582Z,4.40
2022-08-17T02:35:00.950Z,3.85
2022-08-17T02:38:04.983Z,3.70
2022-08-17T02:41:07.505Z,3.97
2022-08-17T02:44:09.539Z,3.80
2022-08-17T02:47:11.664Z,3.90
2022-08-17T02:50:16.528Z,4.00
2022-08-17T02:53:18.509Z,3.87
2022-08-17T02:56:20.512Z,3.78
2022-08-17T02:59:24.294Z,4.00
2022-08-17T03:02:26.632Z,3.88
2022-08-17T03:05:30.597Z,4.18
2022-08-17T03:08:32.614Z,4.13
2022-08-17T03:11:35.081Z,4.35
2022-08-17T03:14:41.577Z,3.75
2022-08-17T03:17:44.622Z,3.55
2022-08-17T03:20:47.402Z,3.33
2022-08-17T03:23:49.388Z,3.63
2022-08-17T03:26:56.659Z,3.92
2022-08-17T03:29:58.707Z,3.85
2022-08-17T03:33:02.968Z,3.75
2022-08-17T03:36:05.308Z,3.33
2022-08-17T03:39:07.380Z,3.83
2022-08-17T03:42:31.845Z,3.47
2022-08-17T03:45:53.808Z,3.80
2022-08-17T03:49:14.301Z,3.65
2022-08-17T03:52:34.511Z,3.90
2022-08-17T03:55:55.442Z,3.77
2022-08-17T03:58:57.477Z,3.53
2022-08-17T04:02:13.026Z,3.70
2022-08-17T04:05:15.267Z,4.53
2022-08-17T04:08:17.915Z,3.95
2022-08-17T04:11:19.940Z,3.40
2022-08-17T04:14:21.913Z,3.75
2022-08-17T04:17:26.937Z,4.00
2022-08-17T04:20:33.620Z,4.15
2022-08-17T04:23:36.679Z,4.10
2022-08-17T04:26:52.717Z,4.47
2022-08-17T04:29:56.362Z,4.45
2022-08-17T04:33:08.794Z,4.15
2022-08-17T04:36:13.844Z,4.05
2022-08-17T04:39:15.969Z,4.32
2022-08-17T04:42:17.950Z,4.00
2022-08-17T04:45:20.019Z,3.83
2022-08-17T04:48:29.770Z,4.07
2022-08-17T04:51:54.485Z,3.80
2022-08-17T04:54:57.622Z,4.65
2022-08-17T04:57:59.690Z,4.27
2022-08-17T05:01:03.486Z,4.38
2022-08-17T05:04:33.053Z,4.82
2022-08-17T05:07:31.745Z,4.55
2022-08-17T05:10:37.178Z,4.55
2022-08-17T05:13:50.205Z,5.17
2022-08-17T05:16:52.405Z,4.82
2022-08-17T05:19:54.424Z,4.40
2022-08-17T05:22:59.623Z,4.63
2022-08-17T05:26:01.603Z,4.07
2022-08-17T05:29:04.293Z,3.90
2022-08-17T05:32:38.060Z,4.60
2022-08-17T05:35:38.444Z,4.22
2022-08-17T05:38:40.721Z,4.30
2022-08-17T05:41:42.652Z,3.67
2022-08-17T05:44:44.649Z,3.80
2022-08-17T05:47:47.525Z,3.78
2022-08-17T05:51:04.991Z,4.00
2022-08-17T05:54:09.881Z,3.70
2022-08-17T05:57:11.760Z,3.70
2022-08-17T06:00:31.808Z,4.20
2022-08-17T06:03:57.318Z,3.88
2022-08-17T06:07:07.118Z,4.05
2022-08-17T06:10:33.719Z,4.05
2022-08-17T06:13:47.850Z,3.97
2022-08-17T06:16:56.078Z,3.93
2022-08-17T06:20:03.462Z,4.10
2022-08-17T06:23:14.400Z,4.50
2022-08-17T06:26:21.000Z,5.00
2022-08-17T06:29:27.853Z,4.38
2022-08-17T06:32:30.035Z,4.60
2022-08-17T06:35:39.370Z,4.68
2022-08-17T06:38:50.042Z,4.38
2022-08-17T06:43:02.330Z,4.43
2022-08-17T06:45:59.050Z,4.53
2022-08-17T06:49:25.954Z,4.67
2022-08-17T06:52:46.799Z,4.93
2022-08-17T06:55:52.364Z,4.40
2022-08-17T06:58:57.485Z,4.40
2022-08-17T07:02:05.659Z,4.15
2022-08-17T07:05:09.812Z,4.53
2022-08-17T07:08:27.734Z,4.38
2022-08-17T07:11:40.261Z,4.57
2022-08-17T07:15:07.866Z,4.32
2022-08-17T07:18:10.537Z,4.25
2022-08-17T07:21:44.916Z,3.97
2022-08-17T07:24:58.400Z,3.88
2022-08-17T07:28:07.146Z,3.97
2022-08-17T07:31:13.288Z,5.03
2022-08-17T07:34:15.598Z,4.13
2022-08-17T07:37:19.319Z,4.47
2022-08-17T07:40:40.923Z,3.90
2022-08-17T07:43:52.903Z,4.80
2022-08-17T07:47:14.436Z,4.18
2022-08-17T07:50:29.322Z,4.10
2022-08-17T07:53:32.076Z,4.23
2022-08-17T07:56:42.044Z,4.78
2022-08-17T08:00:16.206Z,4.22
2022-08-17T08:03:27.261Z,4.55
2022-08-17T08:06:36.296Z,4.32
2022-08-17T08:09:43.447Z,4.07
2022-08-17T08:13:00.417Z,4.60
2022-08-17T08:16:21.519Z,4.55
2022-08-17T08:19:25.983Z,4.05
2022-08-17T08:22:43.472Z,4.22
2022-08-17T08:26:23.091Z,4.13
2022-08-17T08:29:41.752Z,4.30
2022-08-17T08:33:21.242Z,4.47
2022-08-17T08:37:12.572Z,4.30
2022-08-17T08:40:30.043Z,4.57
2022-08-17T08:45:01.150Z,4.00
2022-08-17T08:48:57.060Z,4.22
2022-08-17T08:51:58.489Z,4.13
2022-08-17T08:55:20.200Z,4.20
2022-08-17T08:58:56.063Z,4.43
2022-08-17T09:02:29.524Z,4.40
2022-08-17T09:05:58.492Z,4.35
2022-08-17T09:09:30.229Z,4.72
2022-08-17T09:13:13.941Z,4.55
2022-08-17T09:16:29.578Z,4.90
2022-08-17T09:19:40.744Z,4.10
2022-08-17T09:22:48.769Z,4.47
2022-08-17T09:26:12.007Z,4.10
2022-08-17T09:29:16.631Z,4.15
2022-08-17T09:32:28.584Z,4.47
2022-08-17T09:35:39.508Z,4.07
2022-08-17T09:39:00.320Z,3.88
2022-08-17T09:42:13.745Z,4.22
2022-08-17T09:45:39.052Z,3.88
2022-08-17T09:48:55.369Z,3.78
2022-08-17T09:52:09.908Z,4.03
2022-08-17T09:55:12.024Z,4.43
2022-08-17T09:58:50.804Z,4.00
2022-08-17T10:02:16.073Z,3.78
2022-08-17T10:05:39.150Z,3.88
2022-08-17T10:08:46.750Z,4.53
2022-08-17T10:12:17.373Z,3.58
2022-08-17T10:15:42.746Z,3.65
2022-08-17T10:19:15.317Z,3.85
2022-08-17T10:22:54.839Z,4.05
2022-08-17T10:26:14.804Z,3.83
2022-08-17T10:29:25.914Z,4.00
2022-08-17T10:32:37.696Z,3.80
2022-08-17T10:35:52.644Z,3.80
2022-08-17T10:39:19.812Z,4.72
2022-08-17T10:42:32.681Z,3.43
2022-08-17T10:45:49.532Z,3.80
2022-08-17T10:49:17.559Z,3.92
2022-08-17T10:52:19.550Z,3.70
2022-08-17T10:55:21.680Z,4.38
2022-08-17T10:58:24.656Z,3.40
2022-08-17T11:01:32.160Z,3.55
2022-08-17T11:04:46.326Z,3.67
2022-08-17T11:08:05.508Z,4.32
2022-08-17T11:11:35.822Z,4.40
2022-08-17T11:14:49.847Z,4.17
2022-08-17T11:18:26.202Z,3.50
2022-08-17T11:21:43.751Z,3.90
2022-08-17T11:24:51.402Z,4.00
2022-08-17T11:28:08.700Z,3.97
2022-08-17T11:31:38.776Z,4.53
2022-08-17T11:34:44.596Z,4.53
2022-08-17T11:37:46.591Z,4.30
2022-08-17T11:41:29.270Z,4.13
2022-08-17T11:44:53.975Z,4.18
2022-08-17T11:48:45.823Z,4.10
2022-08-17T11:52:04.812Z,3.97
2022-08-17T11:55:33.934Z,4.35
2022-08-17T11:58:41.041Z,4.10
2022-08-17T12:01:56.808Z,4.63
2022-08-17T12:05:16.990Z,4.57
2022-08-17T12:08:23.063Z,3.88
2022-08-17T12:11:55.576Z,4.68
2022-08-17T12:15:28.594Z,3.85
2022-08-17T12:18:35.729Z,4.35
2022-08-17T12:21:42.204Z,4.60
2022-08-17T12:24:51.643Z,3.70
2022-08-17T12:28:05.646Z,4.13
2022-08-17T12:31:20.206Z,3.70
2022-08-17T12:34:28.246Z,3.92
2022-08-17T12:37:32.989Z,4.00
2022-08-17T12:40:36.767Z,3.58
2022-08-17T12:43:38.833Z,3.40
2022-08-17T12:46:55.541Z,4.03
2022-08-17T12:50:08.184Z,3.90
2022-08-17T12:53:32.472Z,3.80
2022-08-17T12:56:34.500Z,3.83
2022-08-17T12:59:41.560Z,3.67
2022-08-17T13:02:50.879Z,3.67
2022-08-17T13:05:52.857Z,3.63
2022-08-17T13:08:54.999Z,3.90
2022-08-17T13:12:00.282Z,3.38
2022-08-17T13:15:03.159Z,3.72
2022-08-17T13:18:10.493Z,3.72
2022-08-17T13:21:26.937Z,3.58
2022-08-17T13:24:38.103Z,3.27
2022-08-17T13:27:42.941Z,3.20
2022-08-17T13:30:50.470Z,3.35
2022-08-17T13:33:52.620Z,3.60
2022-08-17T13:37:42.581Z,3.50
2022-08-17T13:40:50.121Z,3.33
2022-08-17T13:43:52.204Z,3.60
2022-08-17T13:46:56.932Z,3.53
2022-08-17T13:50:00.016Z,3.45
2022-08-17T13:53:02.695Z,3.65
2022-08-17T13:56:07.359Z,3.60
2022-08-17T13:59:53.825Z,3.70
2022-08-17T14:02:58.879Z,3.97
2022-08-17T14:06:01.716Z,3.90
2022-08-17T14:09:04.339Z,4.03
2022-08-17T14:12:16.205Z,3.70
2022-08-17T14:15:20.937Z,3.38
2022-08-17T14:18:50.549Z,3.60
2022-08-17T14:21:46.694Z,3.47
2022-08-17T14:24:48.747Z,3.40
2022-08-17T14:27:54.319Z,3.40
2022-08-17T14:30:57.987Z,3.72
2022-08-17T14:34:00.132Z,3.75
2022-08-17T14:37:02.107Z,3.67
2022-08-17T14:40:08.417Z,3.97
2022-08-17T14:43:11.270Z,3.37
2022-08-17T14:46:13.363Z,3.63
2022-08-17T14:49:15.690Z,3.40
2022-08-17T14:52:21.672Z,3.50
2022-08-17T14:55:23.872Z,3.58
2022-08-17T14:58:26.067Z,3.10
2022-08-17T15:01:28.329Z,3.28
2022-08-17T15:04:30.596Z,3.15
2022-08-17T15:07:32.690Z,3.40
2022-08-17T15:10:36.949Z,3.58
2022-08-17T15:13:52.561Z,3.87
2022-08-17T15:16:55.205Z,3.35
2022-08-17T15:19:57.585Z,3.25
2022-08-17T15:22:59.715Z,3.40
2022-08-17T15:26:01.724Z,3.22
2022-08-17T15:29:03.849Z,3.47
2022-08-17T15:32:05.938Z,3.50
2022-08-17T15:35:11.432Z,3.42
2022-08-17T15:38:14.393Z,3.25
2022-08-17T15:41:18.848Z,3.50
2022-08-17T15:44:21.860Z,3.40
2022-08-17T15:47:32.168Z,3.10
2022-08-17T15:50:38.320Z,3.08
2022-08-17T15:53:42.452Z,3.10
2022-08-17T15:56:44.711Z,3.20
2022-08-17T15:59:47.740Z,2.87
2022-08-17T16:03:44.648Z,2.83
2022-08-17T16:06:22.152Z,3.03
2022-08-17T16:09:24.197Z,2.90
2022-08-17T16:12:26.528Z,3.22
2022-08-17T16:15:31.157Z,2.83
2022-08-17T16:18:33.228Z,3.05
2022-08-17T16:21:42.983Z,2.72
2022-08-17T16:24:47.892Z,2.75
2022-08-17T16:28:00.258Z,2.85
2022-08-17T16:31:02.216Z,2.80
2022-08-17T16:34:15.987Z,2.80
2022-08-17T16:37:20.326Z,3.03
2022-08-17T16:40:27.519Z,2.47
2022-08-17T16:43:30.108Z,2.80
2022-08-17T16:46:32.159Z,2.70
2022-08-17T16:49:36.620Z,2.50
2022-08-17T16:52:40.553Z,2.50
2022-08-17T16:55:43.286Z,2.50
2022-08-17T16:58:45.972Z,2.65
2022-08-17T17:01:53.173Z,2.70
2022-08-17T17:05:26.190Z,2.63
2022-08-17T17:08:46.764Z,2.83
2022-08-17T17:11:54.632Z,2.47
2022-08-17T17:14:59.296Z,2.83
2022-08-17T17:18:06.805Z,3.07
2022-08-17T17:21:24.189Z,3.00
2022-08-17T17:24:41.596Z,2.92
2022-08-17T17:27:50.405Z,2.70
2022-08-17T17:31:08.285Z,3.00
2022-08-17T17:34:15.882Z,2.80
2022-08-17T17:37:24.627Z,3.75
2022-08-17T17:40:40.437Z,2.88
2022-08-17T17:43:43.211Z,3.30
2022-08-17T17:46:53.239Z,3.05
2022-08-17T17:49:55.861Z,3.30
2022-08-17T17:53:07.538Z,2.78
2022-08-17T17:56:44.073Z,3.13
2022-08-17T18:00:12.930Z,3.20
2022-08-17T18:03:15.153Z,3.47
2022-08-17T18:06:30.538Z,3.30
2022-08-17T18:10:19.661Z,3.00
2022-08-17T18:13:59.289Z,3.20
2022-08-17T18:17:02.229Z,3.75
2022-08-17T18:20:06.984Z,3.75
2022-08-17T18:23:09.919Z,3.60
2022-08-17T18:26:12.047Z,3.30
2022-08-17T18:29:26.291Z,3.55
2022-08-17T18:32:49.576Z,2.92
2022-08-17T18:35:58.908Z,3.40
2022-08-17T18:39:19.018Z,3.70
2022-08-17T18:42:29.068Z,3.70
2022-08-17T18:45:34.667Z,3.13
2022-08-17T18:48:52.718Z,3.45
2022-08-17T18:52:15.637Z,3.28
2022-08-17T18:55:23.777Z,3.13
2022-08-17T18:58:25.977Z,3.95
2022-08-17T19:02:01.907Z,3.72
2022-08-17T19:05:35.230Z,3.63
2022-08-17T19:08:37.467Z,3.78
2022-08-17T19:11:39.926Z,3.97
2022-08-17T19:14:43.202Z,3.00
2022-08-17T19:17:48.535Z,3.28
2022-08-17T19:21:37.176Z,3.92
2022-08-17T19:24:47.511Z,3.58
2022-08-17T19:28:00.727Z,3.20
2022-08-17T19:31:16.636Z,3.50
2022-08-17T19:34:30.155Z,3.97
2022-08-17T19:38:12.932Z,3.83
2022-08-17T19:41:34.292Z,3.83
2022-08-17T19:44:50.787Z,3.87
2022-08-17T19:48:03.387Z,3.88
2022-08-17T19:51:15.556Z,3.85
2022-08-17T19:54:31.385Z,3.50
2022-08-17T19:57:52.049Z,3.67
2022-08-17T20:00:55.473Z,3.87
2022-08-17T20:04:06.773Z,3.53
2022-08-17T20:07:26.195Z,4.40
2022-08-17T20:10:47.373Z,4.32
2022-08-17T20:14:18.847Z,4.30
2022-08-17T20:17:22.345Z,4.20
2022-08-17T20:20:41.132Z,4.82
2022-08-17T20:23:54.248Z,4.78
2022-08-17T20:27:00.864Z,3.90
2022-08-17T20:30:33.030Z,4.85
2022-08-17T20:33:37.187Z,4.47
2022-08-17T20:36:58.814Z,4.43
2022-08-17T20:40:01.026Z,4.32
2022-08-17T20:43:34.109Z,4.10
2022-08-17T20:46:36.062Z,4.25
2022-08-17T20:49:49.811Z,4.37
2022-08-17T20:52:55.396Z,3.83
2022-08-17T20:55:58.073Z,4.18
2022-08-17T20:59:00.860Z,5.03
2022-08-17T21:02:18.394Z,4.10
2022-08-17T21:05:34.389Z,3.70
2022-08-17T21:08:58.610Z,3.90
2022-08-17T21:12:04.030Z,3.83
2022-08-17T21:15:42.135Z,4.07
2022-08-17T21:18:55.553Z,4.22
2022-08-17T21:22:20.068Z,5.20
2022-08-17T21:25:34.380Z,4.60
2022-08-17T21:29:00.442Z,4.00
2022-08-17T21:32:03.561Z,4.55
2022-08-17T21:35:11.474Z,5.47
2022-08-17T21:38:17.015Z,5.07
2022-08-17T21:41:27.296Z,4.68
2022-08-17T21:44:36.762Z,4.82
2022-08-17T21:47:45.468Z,4.40
2022-08-17T21:51:26.087Z,4.85
2022-08-17T21:54:35.477Z,5.10
2022-08-17T21:57:41.786Z,4.60
2022-08-17T22:01:24.599Z,4.70
2022-08-17T22:04:37.277Z,3.80
2022-08-17T22:07:46.779Z,3.55
2022-08-17T22:10:59.372Z,3.40
2022-08-17T22:14:05.961Z,3.28
2022-08-17T22:17:20.181Z,3.70
2022-08-17T22:20:22.576Z,3.33
2022-08-17T22:23:49.466Z,3.53
2022-08-17T22:27:02.346Z,3.40
2022-08-17T22:30:25.837Z,4.53
2022-08-17T22:33:33.286Z,4.05
2022-08-17T22:36:39.959Z,4.10
2022-08-17T22:39:42.071Z,4.55
2022-08-17T22:42:47.593Z,4.47
2022-08-17T22:45:56.690Z,4.60
2022-08-17T22:48:59.585Z,4.28
2022-08-17T22:52:16.851Z,4.50
2022-08-17T22:55:37.363Z,4.22
2022-08-17T22:59:09.097Z,4.40
2022-08-17T23:02:22.304Z,4.55
2022-08-17T23:05:26.242Z,4.43
2022-08-17T23:08:28.196Z,4.30
2022-08-17T23:11:48.615Z,4.38
2022-08-17T23:14:58.445Z,4.30
2022-08-17T23:18:05.113Z,4.32
2022-08-17T23:21:07.746Z,4.85
2022-08-17T23:24:11.918Z,4.60
2022-08-17T23:27:13.893Z,4.95
2022-08-17T23:30:15.990Z,4.87
2022-08-17T23:33:30.602Z,4.90
2022-08-17T23:36:32.590Z,5.15
2022-08-17T23:39:35.180Z,5.55
2022-08-17T23:42:41.998Z,5.85
2022-08-17T23:45:48.518Z,5.47
2022-08-17T23:48:53.997Z,6.22
2022-08-17T23:51:56.069Z,6.20
2022-08-17T23:54:57.978Z,6.03
2022-08-17T23:58:04.124Z,6.10
